Time;durP1;ratioP1;P1;durP2;ratioP2;P2;SDS_P1;SDS_P2;PMS_P1;PMS_P2;Temp;Humidity;BMP_temperature;BMP_pressure;BME280_temperature;BME280_humidity;BME280_pressure;Samples;Min_cycle;Max_cycle;Signal;HPM_P1;HPM_P2
2022/08/21 00:01:13;;;;;;;6.57;2.43;;;16.00;99.90;;;;;;5014702;28;20211;-59
2022/08/21 00:03:42;;;;;;;5.10;2.30;;;16.00;99.90;;;;;;5014605;28;20257;-59
2022/08/21 00:06:09;;;;;;;2.80;2.33;;;16.00;99.90;;;;;;5014104;28;20214;-59
2022/08/21 00:08:36;;;;;;;3.10;2.10;;;15.90;99.90;;;;;;5014496;28;20261;-59
2022/08/21 00:11:03;;;;;;;2.73;1.93;;;15.80;99.90;;;;;;5014412;28;20234;-59
2022/08/21 00:13:30;;;;;;;6.10;2.17;;;15.70;99.90;;;;;;5014249;28;20211;-59
2022/08/21 00:15:57;;;;;;;5.73;2.60;;;15.60;99.90;;;;;;5013810;28;20215;-59
2022/08/21 00:18:25;;;;;;;4.27;2.30;;;15.60;99.90;;;;;;5014422;28;20257;-59
2022/08/21 00:20:53;;;;;;;4.27;2.20;;;15.50;99.90;;;;;;5013989;28;20214;-59
2022/08/21 00:23:20;;;;;;;4.73;2.67;;;15.50;99.90;;;;;;5014102;28;20207;-59
2022/08/21 00:25:47;;;;;;;4.97;2.50;;;15.40;99.90;;;;;;5014151;28;20207;-59
2022/08/21 00:28:15;;;;;;;3.77;2.23;;;15.30;99.90;;;;;;5014199;28;20317;-59
2022/08/21 00:30:43;;;;;;;2.47;2.20;;;15.30;99.90;;;;;;5014060;28;20207;-60
2022/08/21 00:33:11;;;;;;;4.00;2.60;;;15.30;99.90;;;;;;5014122;28;20207;-60
2022/08/21 00:35:40;;;;;;;3.63;2.70;;;15.40;99.90;;;;;;5013777;28;20675;-60
2022/08/21 00:38:09;;;;;;;3.70;2.60;;;15.40;99.90;;;;;;5013895;28;20318;-57
2022/08/21 00:40:41;;;;;;;2.63;2.30;;;15.40;99.90;;;;;;5013993;28;20206;-57
2022/08/21 00:43:11;;;;;;;4.17;2.70;;;15.40;99.90;;;;;;5014093;28;20564;-60
2022/08/21 00:45:38;;;;;;;3.87;2.53;;;15.40;99.90;;;;;;5013682;28;20210;-58
2022/08/21 00:48:05;;;;;;;3.80;2.70;;;15.40;99.90;;;;;;5013620;28;20227;-57
2022/08/21 00:50:36;;;;;;;3.97;2.90;;;15.30;99.90;;;;;;5013565;28;20694;-58
2022/08/21 00:53:06;;;;;;;5.13;2.57;;;15.30;99.90;;;;;;5013672;28;20223;-57
2022/08/21 00:55:36;;;;;;;4.37;2.40;;;15.30;99.90;;;;;;5013586;28;20207;-57
2022/08/21 00:58:06;;;;;;;4.60;2.40;;;15.30;99.90;;;;;;5013554;28;20262;-60
2022/08/21 01:00:37;;;;;;;3.67;2.37;;;15.20;99.90;;;;;;5013846;28;20202;-57
2022/08/21 01:03:08;;;;;;;2.37;2.10;;;15.20;99.90;;;;;;5013462;28;20703;-57
2022/08/21 01:05:35;;;;;;;3.03;2.20;;;15.20;99.90;;;;;;5013738;28;20293;-57
2022/08/21 01:08:02;;;;;;;3.80;2.40;;;15.10;99.90;;;;;;5013168;28;20234;-57
2022/08/21 01:10:29;;;;;;;3.83;2.60;;;15.00;99.90;;;;;;5013321;28;20262;-57
2022/08/21 01:12:59;;;;;;;5.33;2.37;;;15.00;99.90;;;;;;5013221;28;20628;-57
2022/08/21 01:15:30;;;;;;;5.03;2.60;;;15.00;99.90;;;;;;5013369;28;20209;-58
2022/08/21 01:17:57;;;;;;;4.90;2.33;;;15.00;99.90;;;;;;5013374;28;20719;-58
2022/08/21 01:20:23;;;;;;;4.63;2.53;;;15.00;99.90;;;;;;5013451;28;20679;-57
2022/08/21 01:22:52;;;;;;;5.37;2.50;;;15.00;99.90;;;;;;5013618;28;20209;-57
2022/08/21 01:25:20;;;;;;;6.13;2.70;;;14.90;99.90;;;;;;5013310;28;20211;-57
2022/08/21 01:27:47;;;;;;;4.13;2.70;;;14.90;99.90;;;;;;5013200;28;20234;-57
2022/08/21 01:30:18;;;;;;;5.73;2.83;;;14.90;99.90;;;;;;5013166;28;20203;-57
2022/08/21 01:32:46;;;;;;;4.13;2.87;;;14.90;99.90;;;;;;5013051;28;20687;-57
2022/08/21 01:35:17;;;;;;;5.23;2.90;;;14.90;99.90;;;;;;5013306;28;20203;-58
2022/08/21 01:37:44;;;;;;;6.37;2.57;;;14.80;99.90;;;;;;5013093;28;20702;-57
2022/08/21 01:40:16;;;;;;;5.40;2.63;;;14.80;99.90;;;;;;5013502;28;20242;-58
2022/08/21 01:42:43;;;;;;;6.73;2.83;;;14.80;99.90;;;;;;5013436;28;20659;-60
2022/08/21 01:45:11;;;;;;;6.40;2.80;;;14.80;99.90;;;;;;5012956;28;20237;-59
2022/08/21 01:47:38;;;;;;;5.33;2.67;;;14.80;99.90;;;;;;5013191;28;20230;-59
2022/08/21 01:50:08;;;;;;;7.87;2.83;;;14.80;99.90;;;;;;5013218;28;20215;-60
2022/08/21 01:52:35;;;;;;;4.10;2.43;;;14.80;99.90;;;;;;5012806;28;20659;-60
2022/08/21 01:55:02;;;;;;;4.33;2.90;;;14.80;99.90;;;;;;5013034;28;20210;-60
2022/08/21 01:57:30;;;;;;;5.33;2.70;;;14.70;99.90;;;;;;5012862;28;20731;-60
2022/08/21 01:59:57;;;;;;;5.03;2.40;;;14.70;99.90;;;;;;5013352;28;20238;-60
2022/08/21 02:02:24;;;;;;;6.27;2.57;;;14.70;99.90;;;;;;5013094;28;20203;-59
2022/08/21 02:04:51;;;;;;;3.83;2.60;;;14.70;99.90;;;;;;5013559;28;20206;-59
2022/08/21 02:07:18;;;;;;;7.63;3.10;;;14.70;99.90;;;;;;5013003;28;20414;-59
2022/08/21 02:09:45;;;;;;;5.43;2.70;;;14.70;99.90;;;;;;5013146;28;20211;-60
2022/08/21 02:12:12;;;;;;;4.73;3.07;;;14.70;99.90;;;;;;5013110;28;20898;-60
2022/08/21 02:14:40;;;;;;;5.60;2.90;;;14.70;99.90;;;;;;5013558;28;20215;-60
2022/08/21 02:17:07;;;;;;;4.00;2.73;;;14.60;99.90;;;;;;5013813;28;20606;-60
2022/08/21 02:19:34;;;;;;;5.17;2.43;;;14.60;99.90;;;;;;5014165;28;20683;-60
2022/08/21 02:22:01;;;;;;;4.70;2.53;;;14.50;99.90;;;;;;5015718;28;20226;-57
2022/08/21 02:24:28;;;;;;;3.17;2.77;;;14.50;99.90;;;;;;5015782;28;20290;-59
2022/08/21 02:26:55;;;;;;;5.03;2.53;;;14.50;99.90;;;;;;5015607;28;20708;-60
2022/08/21 02:29:21;;;;;;;4.47;2.50;;;14.40;99.90;;;;;;5016058;28;20203;-58
2022/08/21 02:31:50;;;;;;;5.90;2.50;;;14.50;99.90;;;;;;5014637;28;20223;-58
2022/08/21 02:34:16;;;;;;;3.90;2.60;;;14.50;99.90;;;;;;5013858;28;20215;-58
2022/08/21 02:36:43;;;;;;;5.97;2.47;;;14.50;99.90;;;;;;5013316;28;20317;-58
2022/08/21 02:39:10;;;;;;;4.70;2.70;;;14.50;99.90;;;;;;5016209;28;20210;-58
2022/08/21 02:41:37;;;;;;;3.87;2.97;;;14.50;99.90;;;;;;5016545;28;20206;-57
2022/08/21 02:44:04;;;;;;;3.97;2.60;;;14.40;99.90;;;;;;5016519;28;20297;-58
2022/08/21 02:46:31;;;;;;;4.00;2.90;;;14.50;99.90;;;;;;5016266;28;20323;-60
2022/08/21 02:48:59;;;;;;;3.20;2.60;;;14.40;99.90;;;;;;5016712;28;20214;-60
2022/08/21 02:51:26;;;;;;;4.00;2.67;;;14.40;99.90;;;;;;5015681;28;20598;-59
2022/08/21 02:53:53;;;;;;;4.10;2.60;;;14.40;99.90;;;;;;5015835;28;20269;-60
2022/08/21 02:56:22;;;;;;;2.70;2.43;;;14.40;99.90;;;;;;5016074;28;20217;-57
2022/08/21 02:58:51;;;;;;;7.10;2.63;;;14.40;99.90;;;;;;5016116;28;20338;-57
2022/08/21 03:01:19;;;;;;;5.97;2.70;;;14.40;99.90;;;;;;5015787;28;20214;-58
2022/08/21 03:03:49;;;;;;;4.07;2.83;;;14.40;99.90;;;;;;5015762;28;20207;-58
2022/08/21 03:06:20;;;;;;;4.50;2.80;;;14.40;99.90;;;;;;5015634;28;20207;-58
2022/08/21 03:08:47;;;;;;;4.13;2.83;;;14.50;99.90;;;;;;5016012;28;20217;-57
2022/08/21 03:11:14;;;;;;;3.57;2.67;;;14.50;99.90;;;;;;5015280;28;20656;-57
2022/08/21 03:13:41;;;;;;;5.47;2.70;;;14.50;99.90;;;;;;5015791;28;20231;-58
2022/08/21 03:16:09;;;;;;;4.33;2.80;;;14.50;99.90;;;;;;5015751;28;20678;-58
2022/08/21 03:18:36;;;;;;;5.13;2.90;;;14.50;99.90;;;;;;5015367;28;20298;-57
2022/08/21 03:21:03;;;;;;;3.70;2.53;;;14.50;99.90;;;;;;5015627;28;20243;-57
2022/08/21 03:23:31;;;;;;;3.17;2.27;;;14.40;99.90;;;;;;5015450;28;20211;-58
2022/08/21 03:25:59;;;;;;;4.83;2.50;;;14.30;99.90;;;;;;5015273;28;20211;-57
2022/08/21 03:28:26;;;;;;;3.37;2.50;;;14.30;99.90;;;;;;5015028;28;20273;-58
2022/08/21 03:30:53;;;;;;;7.77;2.60;;;14.40;99.90;;;;;;5015589;28;20210;-58
2022/08/21 03:33:21;;;;;;;5.80;2.80;;;14.40;99.90;;;;;;5015274;28;20233;-57
2022/08/21 03:35:51;;;;;;;5.40;2.70;;;14.40;99.90;;;;;;5015218;28;20356;-57
2022/08/21 03:38:19;;;;;;;2.93;2.40;;;14.50;99.90;;;;;;5015223;28;20771;-58
2022/08/21 03:40:47;;;;;;;5.23;2.60;;;14.50;99.90;;;;;;5015172;28;20234;-57
2022/08/21 03:43:14;;;;;;;4.57;2.60;;;14.50;99.90;;;;;;5014940;28;20239;-58
2022/08/21 03:45:41;;;;;;;3.40;2.90;;;14.50;99.90;;;;;;5014774;28;20702;-58
2022/08/21 03:48:09;;;;;;;3.47;2.50;;;14.50;99.90;;;;;;5015017;28;20333;-57
2022/08/21 03:50:39;;;;;;;3.43;2.33;;;14.50;99.90;;;;;;5013604;28;20210;-57
2022/08/21 03:53:05;;;;;;;3.43;2.57;;;14.50;99.90;;;;;;5014466;28;20726;-58
2022/08/21 03:55:32;;;;;;;5.73;2.60;;;14.50;99.90;;;;;;5014590;28;20664;-57
2022/08/21 03:58:01;;;;;;;5.13;2.83;;;14.50;99.90;;;;;;5014409;28;20223;-58
2022/08/21 04:00:28;;;;;;;3.80;2.67;;;14.40;99.90;;;;;;5014979;28;20217;-57
2022/08/21 04:02:55;;;;;;;6.30;2.73;;;14.30;99.90;;;;;;5014623;28;20217;-58
2022/08/21 04:05:27;;;;;;;5.30;2.73;;;14.30;99.90;;;;;;5014517;28;20207;-57
2022/08/21 04:07:56;;;;;;;5.43;2.33;;;14.20;99.90;;;;;;5015617;28;20607;-59
2022/08/21 04:10:24;;;;;;;4.93;2.70;;;14.20;99.90;;;;;;5015751;28;20286;-58
2022/08/21 04:12:51;;;;;;;3.80;2.50;;;14.10;99.90;;;;;;5015276;28;20318;-58
2022/08/21 04:15:20;;;;;;;4.00;2.60;;;14.00;99.90;;;;;;5015442;28;20280;-59
2022/08/21 04:17:49;;;;;;;5.23;2.70;;;14.00;99.90;;;;;;5015699;28;20226;-59
2022/08/21 04:20:17;;;;;;;3.77;2.73;;;14.00;99.90;;;;;;5015391;28;20257;-59
2022/08/21 04:22:44;;;;;;;6.13;2.77;;;14.00;99.90;;;;;;5014716;28;20205;-58
2022/08/21 04:25:11;;;;;;;4.70;3.00;;;14.00;99.90;;;;;;5015484;28;20261;-59
2022/08/21 04:27:39;;;;;;;4.63;2.70;;;14.00;99.90;;;;;;5015231;28;20250;-59
2022/08/21 04:30:07;;;;;;;4.93;2.63;;;14.00;99.90;;;;;;5015519;28;20317;-59
2022/08/21 04:32:35;;;;;;;2.93;2.40;;;14.00;99.90;;;;;;5015051;28;20245;-57
2022/08/21 04:35:06;;;;;;;4.50;2.70;;;14.00;99.90;;;;;;5015496;28;20213;-59
2022/08/21 04:37:33;;;;;;;3.57;2.60;;;14.00;99.90;;;;;;5015063;28;20231;-61
2022/08/21 04:40:00;;;;;;;3.63;2.93;;;14.00;99.90;;;;;;5015409;28;20572;-58
2022/08/21 04:42:28;;;;;;;2.90;2.57;;;13.90;99.90;;;;;;5014936;28;20734;-59
2022/08/21 04:44:56;;;;;;;3.70;2.50;;;14.00;99.90;;;;;;5015576;28;20214;-59
2022/08/21 04:47:23;;;;;;;2.87;2.27;;;13.90;99.90;;;;;;5016141;28;20241;-59
2022/08/21 04:49:51;;;;;;;3.03;2.60;;;14.00;99.90;;;;;;5016650;28;20207;-59
2022/08/21 04:52:22;;;;;;;3.60;2.30;;;14.00;99.90;;;;;;5018082;28;20211;-58
2022/08/21 04:54:51;;;;;;;3.20;2.60;;;14.00;99.90;;;;;;5019062;28;20207;-58
2022/08/21 04:57:19;;;;;;;3.87;2.67;;;13.90;99.90;;;;;;5018036;28;20230;-58
2022/08/21 04:59:49;;;;;;;3.50;2.50;;;14.00;99.90;;;;;;5016336;28;20207;-57
2022/08/21 05:02:16;;;;;;;3.87;2.60;;;14.00;99.90;;;;;;5016828;28;20294;-59
2022/08/21 05:04:47;;;;;;;4.07;2.33;;;14.10;99.90;;;;;;5016043;28;20671;-59
2022/08/21 05:07:19;;;;;;;3.20;2.60;;;14.20;99.90;;;;;;5016947;28;20231;-61
2022/08/21 05:09:46;;;;;;;3.30;2.70;;;14.30;99.90;;;;;;5017257;28;20563;-59
2022/08/21 05:12:14;;;;;;;3.70;2.57;;;14.30;99.90;;;;;;5017237;28;20207;-59
2022/08/21 05:14:42;;;;;;;2.60;2.40;;;14.40;99.90;;;;;;5017468;28;20214;-58
2022/08/21 05:17:09;;;;;;;4.93;2.63;;;14.50;99.90;;;;;;5017202;28;20668;-57
2022/08/21 05:19:36;;;;;;;3.33;2.50;;;14.60;99.90;;;;;;5015786;28;20290;-59
2022/08/21 05:22:03;;;;;;;5.07;2.60;;;14.60;99.90;;;;;;5015143;28;20207;-59
2022/08/21 05:24:32;;;;;;;3.83;2.70;;;14.70;99.90;;;;;;5013633;28;20636;-59
2022/08/21 05:26:59;;;;;;;4.07;2.63;;;14.70;99.90;;;;;;5013730;28;20234;-58
2022/08/21 05:29:26;;;;;;;4.80;2.60;;;14.80;99.90;;;;;;5013769;28;20581;-59
2022/08/21 05:31:54;;;;;;;2.90;2.40;;;14.80;99.90;;;;;;5013962;28;20233;-58
2022/08/21 05:34:23;;;;;;;4.87;2.63;;;14.90;99.90;;;;;;5015170;28;20237;-58
2022/08/21 05:36:50;;;;;;;4.30;2.53;;;15.10;99.90;;;;;;5015398;28;20269;-59
2022/08/21 05:39:17;;;;;;;2.63;2.10;;;15.20;99.90;;;;;;5016820;28;20267;-59
2022/08/21 05:41:45;;;;;;;3.20;2.33;;;15.40;99.90;;;;;;5017038;28;20206;-59
2022/08/21 05:44:12;;;;;;;4.73;2.40;;;15.60;99.90;;;;;;5017598;28;20207;-59
2022/08/21 05:46:39;;;;;;;2.65;2.08;;;16.20;99.90;;;;;;5016903;28;20227;-60
2022/08/21 05:49:06;;;;;;;3.65;1.98;;;17.70;99.90;;;;;;5014614;28;20290;-59
2022/08/21 05:51:32;;;;;;;2.75;1.80;;;19.40;99.90;;;;;;5014205;28;20210;-60
2022/08/21 05:53:59;;;;;;;2.30;1.52;;;21.10;99.90;;;;;;5014003;28;20238;-60
2022/08/21 05:56:26;;;;;;;3.22;1.67;;;22.40;99.90;;;;;;5016740;28;20222;-62
2022/08/21 05:58:55;;;;;;;1.90;1.45;;;23.70;99.90;;;;;;5016787;28;20245;-60
2022/08/21 06:01:23;;;;;;;1.75;1.30;;;24.90;99.90;;;;;;5016607;28;20207;-59
2022/08/21 06:03:49;;;;;;;2.22;1.50;;;26.10;99.90;;;;;;5015752;28;20261;-60
2022/08/21 06:06:16;;;;;;;2.75;1.60;;;27.00;99.90;;;;;;4979137;28;1043887;-59
2022/08/21 06:08:43;;;;;;;2.95;1.50;;;28.10;99.90;;;;;;5016719;28;20210;-59
2022/08/21 06:11:10;;;;;;;4.95;3.55;;;29.00;98.40;;;;;;5018268;28;20234;-59
2022/08/21 06:13:38;;;;;;;2.40;1.52;;;29.70;96.60;;;;;;5018108;28;20234;-60
2022/08/21 06:16:10;;;;;;;2.95;1.83;;;30.30;93.70;;;;;;5020029;28;20211;-60
2022/08/21 06:18:38;;;;;;;2.10;1.45;;;31.00;92.20;;;;;;5018967;28;20289;-60
2022/08/21 06:21:05;;;;;;;3.88;1.80;;;31.40;89.90;;;;;;5018875;28;20213;-60
2022/08/21 06:23:32;;;;;;;2.33;1.23;;;31.90;87.40;;;;;;5016928;28;20226;-60
2022/08/21 06:25:59;;;;;;;2.17;1.50;;;32.40;83.40;;;;;;5016535;28;20203;-62
2022/08/21 06:28:26;;;;;;;2.53;1.35;;;33.00;80.30;;;;;;5017264;28;20226;-63
2022/08/21 06:30:53;;;;;;;4.07;1.60;;;33.40;79.50;;;;;;5017987;28;20227;-66
2022/08/21 06:33:21;;;;;;;2.13;1.70;;;33.80;75.50;;;;;;5017895;28;20227;-64
2022/08/21 06:35:48;;;;;;;2.47;1.60;;;34.30;73.60;;;;;;5017408;28;20233;-63
2022/08/21 06:38:15;;;;;;;2.95;1.90;;;34.60;71.10;;;;;;5017282;28;20235;-63
2022/08/21 06:40:42;;;;;;;3.63;1.70;;;34.80;69.40;;;;;;5018615;28;20281;-62
2022/08/21 06:43:11;;;;;;;3.55;2.10;;;35.00;67.30;;;;;;5018449;28;20243;-65
2022/08/21 06:45:38;;;;;;;3.42;2.03;;;35.30;66.90;;;;;;5016694;28;20207;-60
2022/08/21 06:48:06;;;;;;;5.20;2.65;;;35.70;64.70;;;;;;5016093;28;20267;-60
2022/08/21 06:50:35;;;;;;;2.83;1.83;;;35.90;63.40;;;;;;5015748;28;20229;-60
2022/08/21 06:53:05;;;;;;;5.45;1.60;;;36.30;61.30;;;;;;5015598;28;20234;-60
2022/08/21 06:55:32;;;;;;;3.22;1.65;;;36.70;59.50;;;;;;5016043;28;20203;-60
2022/08/21 06:57:58;;;;;;;3.33;1.77;;;36.90;58.70;;;;;;5015645;28;20231;-60
2022/08/21 07:00:25;;;;;;;2.10;1.40;;;37.30;57.70;;;;;;5015611;28;20203;-60
2022/08/21 07:02:52;;;;;;;6.50;4.03;;;36.80;55.80;;;;;;5015741;28;20215;-60
2022/08/21 07:05:19;;;;;;;5.30;2.28;;;36.20;58.40;;;;;;5015660;28;20286;-60
2022/08/21 07:07:47;;;;;;;3.33;2.30;;;36.50;57.80;;;;;;5015170;28;20246;-60
2022/08/21 07:10:14;;;;;;;4.22;1.90;;;37.00;56.90;;;;;;5015627;28;20230;-60
2022/08/21 07:12:41;;;;;;;3.25;1.88;;;37.80;55.60;;;;;;5015580;28;20211;-60
2022/08/21 07:15:09;;;;;;;3.70;1.98;;;38.50;54.30;;;;;;5015411;28;20237;-60
2022/08/21 07:17:36;;;;;;;5.13;1.88;;;39.10;52.30;;;;;;5015317;28;20231;-60
2022/08/21 07:20:04;;;;;;;6.10;2.72;;;39.30;51.30;;;;;;5015271;28;20203;-60
2022/08/21 07:22:31;;;;;;;5.15;2.35;;;39.50;50.90;;;;;;5015084;28;20211;-60
2022/08/21 07:24:59;;;;;;;5.10;2.42;;;39.70;49.00;;;;;;5014885;28;20639;-60
2022/08/21 07:27:27;;;;;;;3.63;1.80;;;39.90;48.80;;;;;;5015165;28;20223;-60
2022/08/21 07:29:53;;;;;;;4.57;2.50;;;40.10;47.70;;;;;;5015020;28;20290;-60
2022/08/21 07:32:20;;;;;;;4.43;2.50;;;40.60;46.10;;;;;;5014564;28;20230;-60
2022/08/21 07:34:47;;;;;;;4.30;2.28;;;40.90;44.80;;;;;;5015333;28;20233;-60
2022/08/21 07:37:14;;;;;;;5.05;2.00;;;41.10;44.60;;;;;;5014654;28;20702;-60
2022/08/21 07:39:41;;;;;;;3.63;1.83;;;41.40;42.90;;;;;;5014475;28;20667;-59
2022/08/21 07:42:09;;;;;;;4.55;2.20;;;40.10;44.70;;;;;;5014669;28;20207;-60
2022/08/21 07:44:36;;;;;;;6.15;2.40;;;38.40;45.90;;;;;;5014722;28;20202;-60
2022/08/21 07:47:03;;;;;;;4.70;2.35;;;37.10;47.60;;;;;;5014797;28;20227;-60
2022/08/21 07:49:30;;;;;;;5.95;2.50;;;37.10;48.30;;;;;;5014633;28;20203;-60
2022/08/21 07:51:57;;;;;;;4.50;2.33;;;37.20;47.50;;;;;;5014665;28;20230;-59
2022/08/21 07:54:24;;;;;;;6.18;2.65;;;36.50;48.30;;;;;;5014894;28;20237;-59
2022/08/21 07:56:51;;;;;;;7.75;2.63;;;36.40;50.10;;;;;;5014560;28;20630;-60
2022/08/21 07:59:19;;;;;;;5.22;2.42;;;37.10;48.70;;;;;;5014247;28;20668;-60
2022/08/21 08:01:46;;;;;;;4.60;2.72;;;37.80;48.40;;;;;;5014124;28;20202;-60
2022/08/21 08:04:14;;;;;;;4.82;2.22;;;38.60;48.10;;;;;;5013995;28;20211;-60
2022/08/21 08:06:41;;;;;;;6.63;3.15;;;37.70;48.90;;;;;;5014082;28;20235;-60
2022/08/21 08:09:08;;;;;;;5.55;2.45;;;37.30;49.50;;;;;;5014351;28;20227;-60
2022/08/21 08:11:36;;;;;;;4.28;2.95;;;37.50;48.40;;;;;;5014109;28;20203;-60
2022/08/21 08:14:03;;;;;;;3.88;2.42;;;36.90;49.70;;;;;;5014001;28;20237;-60
2022/08/21 08:16:31;;;;;;;4.75;2.80;;;37.10;50.00;;;;;;5013902;28;20230;-60
2022/08/21 08:18:58;;;;;;;3.17;2.40;;;38.00;48.40;;;;;;5014163;28;20207;-60
2022/08/21 08:21:25;;;;;;;4.30;2.63;;;38.70;46.50;;;;;;5013869;28;20218;-60
2022/08/21 08:23:52;;;;;;;5.28;2.80;;;38.30;47.80;;;;;;5014124;28;20253;-63
2022/08/21 08:26:18;;;;;;;5.80;2.78;;;38.00;47.90;;;;;;5016291;28;20213;-64
2022/08/21 08:28:46;;;;;;;4.72;2.95;;;36.80;48.20;;;;;;5013743;28;20210;-60
2022/08/21 08:31:13;;;;;;;4.60;3.13;;;35.20;50.70;;;;;;5013558;28;20211;-59
2022/08/21 08:33:41;;;;;;;7.22;3.60;;;33.30;53.30;;;;;;5013876;28;20262;-60
2022/08/21 08:36:14;;;;;;;6.57;3.53;;;32.10;54.80;;;;;;5013976;28;20238;-60
2022/08/21 08:38:41;;;;;;;6.78;3.25;;;31.00;57.50;;;;;;5014044;28;20207;-59
2022/08/21 08:41:13;;;;;;;5.50;3.15;;;30.30;58.90;;;;;;5013275;28;20610;-64
2022/08/21 08:43:43;;;;;;;5.10;3.20;;;29.60;60.10;;;;;;5013882;28;20213;-60
2022/08/21 08:46:15;;;;;;;8.02;3.70;;;28.20;65.10;;;;;;5013630;28;20222;-59
2022/08/21 08:48:51;;;;;;;6.05;3.88;;;27.00;70.10;;;;;;5014080;28;20264;-59
2022/08/21 08:51:25;;;;;;;7.65;3.80;;;26.30;72.70;;;;;;5013769;28;20241;-60
2022/08/21 08:54:01;;;;;;;6.65;3.78;;;25.90;74.10;;;;;;5013694;28;20223;-59
2022/08/21 08:56:30;;;;;;;6.93;3.72;;;25.20;77.50;;;;;;5013291;28;20693;-59
2022/08/21 08:59:02;;;;;;;5.13;3.63;;;24.60;79.90;;;;;;5013432;28;20226;-59
2022/08/21 09:01:29;;;;;;;8.65;4.00;;;24.10;83.10;;;;;;5013474;28;20217;-59
2022/08/21 09:03:58;;;;;;;7.28;4.13;;;23.80;86.40;;;;;;5013416;28;20203;-59
2022/08/21 09:06:45;;;;;;;7.90;4.32;;;23.70;89.70;;;;;;5013451;28;20206;-59
2022/08/21 09:09:24;;;;;;;7.40;3.75;;;23.50;90.00;;;;;;5013898;28;20297;-59
2022/08/21 09:11:59;;;;;;;9.00;3.97;;;23.60;91.00;;;;;;5013451;28;20210;-59
2022/08/21 09:14:36;;;;;;;8.85;4.35;;;23.90;90.80;;;;;;5013979;28;20222;-59
2022/08/21 09:17:10;;;;;;;6.27;4.03;;;24.30;90.10;;;;;;5013732;28;20541;-62
2022/08/21 09:19:51;;;;;;;5.97;3.50;;;24.60;89.10;;;;;;4994561;28;20214;-61
2022/08/21 09:22:31;;;;;;;7.35;3.88;;;24.90;87.90;;;;;;4993164;28;20218;-63
2022/08/21 09:25:07;;;;;;;6.47;3.72;;;25.10;87.10;;;;;;5012112;28;20821;-63
2022/08/21 09:27:35;;;;;;;5.95;4.05;;;25.30;87.00;;;;;;5013095;28;20345;-62
2022/08/21 09:30:02;;;;;;;7.75;3.90;;;25.30;88.10;;;;;;5032732;28;20198;-60
2022/08/21 09:32:31;;;;;;;9.40;4.05;;;25.30;87.10;;;;;;5002847;28;20593;-60
2022/08/21 09:35:02;;;;;;;8.50;3.63;;;25.20;86.90;;;;;;4992910;28;20223;-61
2022/08/21 09:37:30;;;;;;;7.43;4.03;;;25.40;87.40;;;;;;4992918;28;20235;-59
2022/08/21 09:39:59;;;;;;;6.97;3.65;;;25.40;87.20;;;;;;4992202;28;20266;-59
2022/08/21 09:42:28;;;;;;;5.95;3.65;;;25.60;87.60;;;;;;4992243;28;20212;-60
2022/08/21 09:45:14;;;;;;;5.53;3.28;;;25.60;86.40;;;;;;4991694;28;20211;-58
2022/08/21 09:47:42;;;;;;;6.60;3.78;;;25.50;86.10;;;;;;4991504;28;20677;-56
2022/08/21 09:50:14;;;;;;;5.75;3.47;;;25.60;86.20;;;;;;4992193;28;20307;-57
2022/08/21 09:52:48;;;;;;;6.03;3.15;;;25.70;84.90;;;;;;4992382;28;20234;-56
2022/08/21 09:58:01;;;;;;;9.18;3.85;;;25.60;82.60;;;;;;4992236;28;20274;-57
2022/08/21 10:00:32;;;;;;;5.28;2.83;;;25.70;80.90;;;;;;4992329;28;20274;-58
2022/08/21 10:03:14;;;;;;;6.35;3.00;;;25.70;79.80;;;;;;4991202;28;20264;-63
2022/08/21 10:05:56;;;;;;;4.95;3.00;;;25.80;78.40;;;;;;5009016;28;20198;-60
2022/08/21 10:08:26;;;;;;;6.32;3.20;;;25.70;79.90;;;;;;5029118;28;20714;-61
2022/08/21 10:10:55;;;;;;;6.50;2.95;;;25.60;78.50;;;;;;5014915;28;20211;-61
2022/08/21 10:13:33;;;;;;;5.38;2.88;;;25.60;79.10;;;;;;5025977;28;20293;-61
2022/08/21 10:16:12;;;;;;;8.15;3.45;;;25.60;77.80;;;;;;5032406;28;20598;-60
2022/08/21 10:18:42;;;;;;;7.47;2.85;;;25.60;75.30;;;;;;5014092;28;20211;-60
2022/08/21 10:21:18;;;;;;;6.22;2.75;;;25.70;73.30;;;;;;4993485;28;20660;-60
2022/08/21 10:24:09;;;;;;;8.63;3.60;;;25.70;75.50;;;;;;4992840;28;20211;-62
2022/08/21 10:26:46;;;;;;;7.38;2.90;;;25.80;77.00;;;;;;4991493;28;20596;-62
2022/08/21 10:29:24;;;;;;;6.43;2.88;;;25.90;77.10;;;;;;4990765;28;20211;-60
2022/08/21 10:31:58;;;;;;;5.15;2.60;;;26.00;76.70;;;;;;4991442;28;20243;-60
2022/08/21 10:34:45;;;;;;;5.80;2.47;;;26.10;75.60;;;;;;4991053;28;20223;-60
2022/08/21 10:37:28;;;;;;;7.60;2.95;;;26.30;74.70;;;;;;4990523;28;20318;-62
2022/08/21 10:40:08;;;;;;;6.70;2.70;;;26.50;72.90;;;;;;4992230;28;20302;-62
2022/08/21 10:42:41;;;;;;;12.45;6.25;;;26.80;71.40;;;;;;4990842;28;20230;-61
2022/08/21 10:45:18;;;;;;;5.93;2.80;;;26.90;73.10;;;;;;4990798;28;20688;-62
2022/08/21 10:47:49;;;;;;;6.03;2.47;;;27.10;70.10;;;;;;4991287;28;20237;-60
2022/08/21 10:50:27;;;;;;;9.18;6.55;;;27.00;69.00;;;;;;4992512;28;20234;-58
2022/08/21 10:53:20;;;;;;;7.68;3.00;;;27.00;68.40;;;;;;4992320;28;20664;-58
2022/08/21 10:55:56;;;;;;;6.43;3.03;;;27.10;68.50;;;;;;4992328;28;20238;-58
2022/08/21 10:58:29;;;;;;;5.28;2.78;;;27.30;68.10;;;;;;4993076;28;20231;-59
2022/08/21 11:00:59;;;;;;;6.07;2.80;;;27.40;66.90;;;;;;4996153;28;20211;-58
2022/08/21 11:03:32;;;;;;;10.52;3.30;;;27.60;65.60;;;;;;4996030;28;20204;-58
2022/08/21 11:06:05;;;;;;;5.65;2.50;;;27.70;64.50;;;;;;4996002;28;20204;-59
2022/08/21 11:08:39;;;;;;;6.10;2.70;;;27.90;64.20;;;;;;4995915;28;20604;-58
2022/08/21 11:11:13;;;;;;;9.45;3.50;;;28.00;63.80;;;;;;4996103;28;20294;-58
2022/08/21 11:13:43;;;;;;;5.65;2.90;;;28.00;65.00;;;;;;4995474;28;20217;-58
2022/08/21 11:16:18;;;;;;;5.85;3.08;;;28.10;63.70;;;;;;4996000;28;20687;-59
2022/08/21 11:18:50;;;;;;;5.63;2.67;;;28.20;65.40;;;;;;4995803;28;20298;-58
2022/08/21 11:21:30;;;;;;;5.03;2.65;;;28.20;65.00;;;;;;4996035;28;20215;-59
2022/08/21 11:24:09;;;;;;;6.65;2.92;;;28.10;65.40;;;;;;4994996;28;20243;-58
2022/08/21 11:26:39;;;;;;;5.57;2.50;;;28.20;64.30;;;;;;4995771;28;20636;-58
2022/08/21 11:29:14;;;;;;;6.32;2.80;;;28.30;64.50;;;;;;4995524;28;20224;-59
2022/08/21 11:31:55;;;;;;;4.90;2.30;;;28.40;63.80;;;;;;4995237;28;20207;-58
2022/08/21 11:34:44;;;;;;;6.50;2.78;;;28.40;63.50;;;;;;4995429;28;20226;-58
2022/08/21 11:37:18;;;;;;;5.57;2.50;;;28.20;63.50;;;;;;4995460;28;20224;-58
2022/08/21 11:39:58;;;;;;;4.22;2.45;;;28.10;63.50;;;;;;4995416;28;20230;-59
2022/08/21 11:42:34;;;;;;;4.60;2.50;;;28.20;64.00;;;;;;4995188;28;20207;-58
2022/08/21 11:45:13;;;;;;;6.63;2.70;;;28.30;65.20;;;;;;4995104;28;20225;-58
2022/08/21 11:47:54;;;;;;;7.75;2.92;;;28.40;64.60;;;;;;4995165;28;20227;-58
2022/08/21 11:50:24;;;;;;;5.32;2.47;;;28.50;62.90;;;;;;4995191;28;20211;-59
2022/08/21 11:52:56;;;;;;;3.95;2.38;;;28.60;62.80;;;;;;4994721;28;20212;-58
2022/08/21 11:55:31;;;;;;;3.88;2.40;;;28.70;62.70;;;;;;4994824;28;20239;-59
2022/08/21 11:58:02;;;;;;;5.57;2.63;;;28.80;62.60;;;;;;4994826;28;20234;-58
2022/08/21 12:00:33;;;;;;;5.75;2.90;;;29.00;62.10;;;;;;4994747;28;20210;-59
2022/08/21 12:03:10;;;;;;;4.72;2.50;;;29.10;61.90;;;;;;4994778;28;20218;-59
2022/08/21 12:05:41;;;;;;;4.50;2.53;;;29.10;61.10;;;;;;4995348;28;20623;-58
2022/08/21 12:08:13;;;;;;;9.20;6.03;;;29.20;59.80;;;;;;4995271;28;20250;-58
2022/08/21 12:10:46;;;;;;;4.35;2.60;;;29.20;60.00;;;;;;4994982;28;20270;-58
2022/08/21 12:13:25;;;;;;;5.97;2.33;;;29.20;60.10;;;;;;4996097;28;20622;-59
2022/08/21 12:15:52;;;;;;;10.82;8.07;;;29.30;60.10;;;;;;4995421;28;20223;-58
2022/08/21 12:18:24;;;;;;;4.82;3.05;;;29.30;59.50;;;;;;4994843;28;20322;-58
2022/08/21 12:21:16;;;;;;;6.20;3.33;;;29.30;58.70;;;;;;4995801;28;20742;-58
2022/08/21 12:23:48;;;;;;;4.93;2.50;;;29.30;58.20;;;;;;4995984;28;20243;-59
2022/08/21 12:26:27;;;;;;;3.97;2.50;;;29.40;57.60;;;;;;4995181;28;20628;-58
2022/08/21 12:29:24;;;;;;;4.40;2.40;;;29.40;57.40;;;;;;4995099;28;20211;-59
2022/08/21 12:31:59;;;;;;;5.05;2.40;;;29.30;58.60;;;;;;4985982;28;20222;-58
2022/08/21 12:34:33;;;;;;;5.60;2.50;;;29.00;58.70;;;;;;4994522;28;20672;-58
2022/08/21 12:37:04;;;;;;;5.75;2.50;;;28.80;58.50;;;;;;4995009;28;20318;-58
2022/08/21 12:39:33;;;;;;;6.55;2.45;;;28.60;58.60;;;;;;4995372;28;20211;-58
2022/08/21 12:42:07;;;;;;;5.43;2.40;;;28.50;59.30;;;;;;4995558;28;20208;-58
2022/08/21 12:44:41;;;;;;;4.18;2.20;;;28.50;58.40;;;;;;4995606;28;20266;-58
2022/08/21 12:47:15;;;;;;;6.93;2.40;;;28.50;58.80;;;;;;4995689;28;20231;-58
2022/08/21 12:49:51;;;;;;;3.45;2.42;;;28.50;58.90;;;;;;4995886;28;20235;-58
2022/08/21 12:52:22;;;;;;;6.25;2.63;;;28.50;58.90;;;;;;4996076;28;20294;-58
2022/08/21 12:54:49;;;;;;;4.20;2.33;;;28.40;58.50;;;;;;4996022;28;20746;-59
2022/08/21 12:57:23;;;;;;;6.05;2.13;;;28.40;57.90;;;;;;4995826;28;20716;-58
2022/08/21 12:59:55;;;;;;;4.20;2.20;;;28.30;58.00;;;;;;4995133;28;20267;-58
2022/08/21 13:02:25;;;;;;;5.63;2.50;;;28.20;57.30;;;;;;4994447;28;20250;-58